createdAt,value
2022-09-23T00:02:12.440Z,100432.84
2022-09-23T00:04:42.880Z,100428.44
2022-09-23T00:07:11.154Z,100433.56
2022-09-23T00:09:39.453Z,100438.81
2022-09-23T00:12:09.999Z,100440.53
2022-09-23T00:14:39.820Z,100432.63
2022-09-23T00:17:08.246Z,100433.47
2022-09-23T00:19:39.091Z,100442.22
2022-09-23T00:22:08.936Z,100438.72
2022-09-23T00:24:37.261Z,100439.56
2022-09-23T00:27:06.131Z,100429.91
2022-09-23T00:29:34.615Z,100422.91
2022-09-23T00:32:03.303Z,100428.16
2022-09-23T00:34:31.657Z,100421.13
2022-09-23T00:36:59.919Z,100426.34
2022-09-23T00:39:29.811Z,100420.22
2022-09-23T00:41:58.073Z,100418.47
2022-09-23T00:44:45.046Z,100419.28
2022-09-23T00:47:20.101Z,100418.31
2022-09-23T00:49:53.199Z,100420.94
2022-09-23T00:52:25.337Z,100417.38
2022-09-23T00:54:59.737Z,100410.38
2022-09-23T00:57:30.595Z,100415.63
2022-09-23T00:59:59.007Z,100414.75
2022-09-23T01:02:28.340Z,100413.81
2022-09-23T01:04:56.717Z,100412.06
2022-09-23T01:07:25.431Z,100406.75
2022-09-23T01:09:55.077Z,100408.50
2022-09-23T01:12:42.814Z,100402.38
2022-09-23T01:15:18.305Z,100404.06
2022-09-23T01:17:52.992Z,100397.94
2022-09-23T01:20:32.376Z,100402.31
2022-09-23T01:23:18.651Z,100402.31
2022-09-23T01:26:08.032Z,100392.69
2022-09-23T01:28:59.154Z,100399.69
2022-09-23T01:31:38.614Z,100397.09
2022-09-23T01:34:12.103Z,100392.69
2022-09-23T01:36:44.792Z,100390.91
2022-09-23T01:39:21.944Z,100383.91
2022-09-23T01:41:55.372Z,100378.69
2022-09-23T01:44:30.713Z,100379.53
2022-09-23T01:47:10.837Z,100376.91
2022-09-23T01:49:47.197Z,100384.75
2022-09-23T01:52:20.515Z,100380.34
2022-09-23T01:54:55.552Z,100379.47
2022-09-23T01:57:31.688Z,100383.81
2022-09-23T02:00:09.403Z,100379.41
2022-09-23T02:02:49.831Z,100379.41
2022-09-23T02:05:23.310Z,100388.13
2022-09-23T02:07:59.349Z,100379.38
2022-09-23T02:10:33.598Z,100373.25
2022-09-23T02:13:06.296Z,100374.97
2022-09-23T02:15:40.160Z,100377.59
2022-09-23T02:18:15.300Z,100376.69
2022-09-23T02:20:44.781Z,100370.53
2022-09-23T02:23:16.082Z,100367.91
2022-09-23T02:25:54.945Z,100371.38
2022-09-23T02:28:32.619Z,100362.59
2022-09-23T02:31:12.539Z,100350.34
2022-09-23T02:33:47.295Z,100353.78
2022-09-23T02:36:23.697Z,100352.91
2022-09-23T02:38:57.382Z,100356.38
2022-09-23T02:41:32.274Z,100352.88
2022-09-23T02:44:06.850Z,100347.59
2022-09-23T02:46:35.361Z,100341.47
2022-09-23T02:49:11.089Z,100345.78
2022-09-23T02:51:40.001Z,100342.28
2022-09-23T02:54:11.350Z,100337.94
2022-09-23T02:56:39.597Z,100334.44
2022-09-23T02:59:09.567Z,100330.06
2022-09-23T03:01:46.593Z,100333.50
2022-09-23T03:04:21.811Z,100336.97
2022-09-23T03:07:01.752Z,100330.78
2022-09-23T03:09:34.963Z,100338.63
2022-09-23T03:12:14.352Z,100329.03
2022-09-23T03:14:51.318Z,100331.59
2022-09-23T03:17:23.351Z,100331.59
2022-09-23T03:19:59.058Z,100320.25
2022-09-23T03:22:32.950Z,100323.72
2022-09-23T03:25:07.093Z,100326.34
2022-09-23T03:27:37.564Z,100325.38
2022-09-23T03:30:08.129Z,100320.97
2022-09-23T03:32:39.357Z,100320.06
2022-09-23T03:35:10.282Z,100324.38
2022-09-23T03:37:42.994Z,100309.47
2022-09-23T03:40:17.492Z,100316.50
2022-09-23T03:42:48.834Z,100314.66
2022-09-23T03:45:21.401Z,100317.22
2022-09-23T03:47:49.791Z,100319.72
2022-09-23T03:50:20.835Z,100323.16
2022-09-23T03:52:50.392Z,100318.78
2022-09-23T03:55:20.285Z,100313.50
2022-09-23T03:57:49.072Z,100316.09
2022-09-23T04:00:17.790Z,100316.91
2022-09-23T04:02:46.233Z,100315.13
2022-09-23T04:05:15.826Z,100317.75
2022-09-23T04:07:45.990Z,100307.22
2022-09-23T04:10:14.295Z,100306.25
2022-09-23T04:12:42.549Z,100307.13
2022-09-23T04:15:11.980Z,100303.59
2022-09-23T04:17:40.285Z,100295.66
2022-09-23T04:20:09.218Z,100296.50
2022-09-23T04:22:38.646Z,100289.44
2022-09-23T04:25:09.641Z,100289.31
2022-09-23T04:27:38.156Z,100290.13
2022-09-23T04:30:07.363Z,100290.91
2022-09-23T04:32:35.614Z,100287.38
2022-09-23T04:35:03.954Z,100283.81
2022-09-23T04:37:32.398Z,100276.75
2022-09-23T04:40:00.687Z,100276.69
2022-09-23T04:42:31.117Z,100283.59
2022-09-23T04:44:59.407Z,100273.06
2022-09-23T04:47:28.187Z,100271.28
2022-09-23T04:49:59.689Z,100265.13
2022-09-23T04:52:28.495Z,100272.00
2022-09-23T04:54:56.742Z,100268.47
2022-09-23T04:57:25.366Z,100263.19
2022-09-23T04:59:56.869Z,100263.13
2022-09-23T05:02:25.232Z,100259.66
2022-09-23T05:04:53.550Z,100256.03
2022-09-23T05:07:21.928Z,100256.88
2022-09-23T05:09:50.185Z,100260.31
2022-09-23T05:12:18.644Z,100265.50
2022-09-23T05:14:46.926Z,100263.69
2022-09-23T05:17:16.570Z,100262.78
2022-09-23T05:19:44.909Z,100264.50
2022-09-23T05:22:13.170Z,100269.72
2022-09-23T05:24:41.493Z,100270.56
2022-09-23T05:27:09.812Z,100264.47
2022-09-23T05:29:39.135Z,100266.19
2022-09-23T05:32:07.950Z,100268.81
2022-09-23T05:34:37.565Z,100261.75
2022-09-23T05:37:06.143Z,100265.25
2022-09-23T05:39:34.405Z,100266.91
2022-09-23T05:42:02.705Z,100269.53
2022-09-23T05:44:30.961Z,100267.78
2022-09-23T05:46:59.305Z,100271.25
2022-09-23T05:49:42.859Z,100280.84
2022-09-23T05:52:17.509Z,100272.13
2022-09-23T05:54:45.809Z,100275.59
2022-09-23T05:57:14.082Z,100275.59
2022-09-23T05:59:47.288Z,100273.81
2022-09-23T06:02:16.029Z,100274.69
2022-09-23T06:04:44.354Z,100267.75
2022-09-23T06:07:12.707Z,100273.88
2022-09-23T06:09:42.808Z,100269.53
2022-09-23T06:12:11.169Z,100279.13
2022-09-23T06:14:39.492Z,100273.91
2022-09-23T06:17:07.811Z,100277.47
2022-09-23T06:19:36.132Z,100282.78
2022-09-23T06:22:04.412Z,100278.50
2022-09-23T06:24:32.893Z,100271.59
2022-09-23T06:27:03.175Z,100274.31
2022-09-23T06:29:33.149Z,100280.50
2022-09-23T06:32:01.848Z,100275.34
2022-09-23T06:34:31.439Z,100277.25
2022-09-23T06:37:07.919Z,100273.91
2022-09-23T06:39:40.537Z,100274.03
2022-09-23T06:42:10.328Z,100272.47
2022-09-23T06:44:38.627Z,100273.53
2022-09-23T06:47:07.192Z,100268.41
2022-09-23T06:49:35.733Z,100268.63
2022-09-23T06:52:05.116Z,100280.19
2022-09-23T06:54:33.399Z,100270.84
2022-09-23T06:57:01.674Z,100276.41
2022-09-23T06:59:31.342Z,100281.94
2022-09-23T07:01:59.741Z,100280.50
2022-09-23T07:04:29.437Z,100273.81
2022-09-23T07:06:57.809Z,100282.84
2022-09-23T07:09:29.027Z,100289.31
2022-09-23T07:11:57.281Z,100280.88
2022-09-23T07:14:25.719Z,100274.22
2022-09-23T07:16:55.353Z,100278.91
2022-09-23T07:19:24.357Z,100279.16
2022-09-23T07:21:52.672Z,100283.78
2022-09-23T07:24:20.995Z,100278.78
2022-09-23T07:26:49.596Z,100283.34
2022-09-23T07:29:18.035Z,100275.72
2022-09-23T07:31:46.357Z,100275.94
2022-09-23T07:34:16.056Z,100282.28
2022-09-23T07:36:44.423Z,100293.06
2022-09-23T07:39:13.434Z,100277.50
2022-09-23T07:41:44.228Z,100282.94
2022-09-23T07:44:16.226Z,100290.16
2022-09-23T07:46:44.556Z,100281.56
2022-09-23T07:49:13.562Z,100284.34
2022-09-23T07:51:45.890Z,100280.13
2022-09-23T07:54:16.104Z,100287.31
2022-09-23T07:56:45.013Z,100279.53
2022-09-23T07:59:18.158Z,100277.94
2022-09-23T08:01:48.625Z,100285.09
2022-09-23T08:04:20.715Z,100289.59
2022-09-23T08:06:53.441Z,100280.06
2022-09-23T08:09:23.530Z,100278.53
2022-09-23T08:11:52.717Z,100281.22
2022-09-23T08:14:22.292Z,100279.59
2022-09-23T08:16:51.831Z,100282.38
2022-09-23T08:19:20.495Z,100281.59
2022-09-23T08:21:52.088Z,100286.13
2022-09-23T08:24:24.092Z,100287.09
2022-09-23T08:26:53.860Z,100284.56
2022-09-23T08:29:24.049Z,100287.38
2022-09-23T08:31:53.863Z,100283.97
2022-09-23T08:34:24.250Z,100273.53
2022-09-23T08:36:53.950Z,100277.19
2022-09-23T08:39:23.039Z,100275.56
2022-09-23T08:42:06.369Z,100259.88
2022-09-23T08:44:46.534Z,100268.75
2022-09-23T08:47:20.984Z,100270.63
2022-09-23T08:49:59.106Z,100268.13
2022-09-23T08:52:34.314Z,100271.75
2022-09-23T08:55:03.645Z,100273.59
2022-09-23T08:57:40.987Z,100271.03
2022-09-23T09:00:19.979Z,100272.00
2022-09-23T09:02:50.087Z,100273.84
2022-09-23T09:05:26.155Z,100275.66
2022-09-23T09:08:00.237Z,100278.34
2022-09-23T09:10:36.483Z,100268.75
2022-09-23T09:13:08.802Z,100278.44
2022-09-23T09:15:47.687Z,100266.19
2022-09-23T09:18:20.863Z,100270.66
2022-09-23T09:20:59.060Z,100263.66
2022-09-23T09:23:35.914Z,100261.06
2022-09-23T09:26:05.301Z,100267.25
2022-09-23T09:28:39.758Z,100276.97
2022-09-23T09:31:24.134Z,100260.31
2022-09-23T09:33:58.243Z,100263.91
2022-09-23T09:36:37.056Z,100263.97
2022-09-23T09:39:07.709Z,100255.28
2022-09-23T09:41:36.838Z,100251.81
2022-09-23T09:44:24.885Z,100257.19
2022-09-23T09:47:00.429Z,100254.63
2022-09-23T09:49:40.309Z,100248.56
2022-09-23T09:52:23.304Z,100250.41
2022-09-23T09:54:56.179Z,100249.59
2022-09-23T09:57:35.175Z,100246.16
2022-09-23T10:00:35.598Z,100245.38
2022-09-23T10:03:09.101Z,100239.28
2022-09-23T10:05:49.407Z,100241.13
2022-09-23T10:08:26.730Z,100242.97
2022-09-23T10:11:02.342Z,100239.50
2022-09-23T10:13:31.147Z,100242.19
2022-09-23T10:16:00.823Z,100232.56
2022-09-23T10:18:31.792Z,100237.94
2022-09-23T10:21:10.755Z,100234.50
2022-09-23T10:23:42.546Z,100234.53
2022-09-23T10:26:13.903Z,100231.94
2022-09-23T10:28:51.540Z,100231.09
2022-09-23T10:31:25.240Z,100228.53
2022-09-23T10:33:57.217Z,100233.84
2022-09-23T10:36:25.911Z,100233.03
2022-09-23T10:39:18.597Z,100229.53
2022-09-23T10:42:18.156Z,100226.06
2022-09-23T10:45:19.248Z,100227.84
2022-09-23T10:47:55.345Z,100225.25
2022-09-23T10:50:38.867Z,100219.09
2022-09-23T10:53:16.155Z,100221.78
2022-09-23T10:55:57.938Z,100218.28
2022-09-23T10:58:59.812Z,100209.47
2022-09-23T11:01:40.286Z,100209.50
2022-09-23T11:04:22.419Z,100208.66
2022-09-23T11:07:07.880Z,100213.06
2022-09-23T11:09:47.124Z,100199.91
2022-09-23T11:12:27.869Z,100198.19
2022-09-23T11:15:19.936Z,100207.91
2022-09-23T11:18:17.664Z,100192.97
2022-09-23T11:20:55.713Z,100190.31
2022-09-23T11:23:38.076Z,100188.56
2022-09-23T11:26:20.619Z,100182.41
2022-09-23T11:29:05.365Z,100191.19
2022-09-23T11:31:38.805Z,100180.59
2022-09-23T11:34:25.087Z,100187.72
2022-09-23T11:36:58.935Z,100185.91
2022-09-23T11:39:32.104Z,100180.59
2022-09-23T11:42:02.739Z,100185.91
2022-09-23T11:44:35.572Z,100177.06
2022-09-23T11:47:09.987Z,100178.78
2022-09-23T11:49:42.159Z,100174.34
2022-09-23T11:52:19.398Z,100174.34
2022-09-23T11:54:53.914Z,100171.69
2022-09-23T11:57:25.864Z,100169.00
2022-09-23T12:00:01.270Z,100163.66
2022-09-23T12:02:40.096Z,100169.81
2022-09-23T12:05:12.325Z,100166.25
2022-09-23T12:07:53.337Z,100160.94
2022-09-23T12:10:23.320Z,100155.63
2022-09-23T12:13:01.036Z,100157.34
2022-09-23T12:15:46.080Z,100155.59
2022-09-23T12:18:42.104Z,100150.25
2022-09-23T12:21:49.698Z,100150.25
2022-09-23T12:24:32.872Z,100154.69
2022-09-23T12:27:06.037Z,100146.75
2022-09-23T12:29:37.471Z,100142.38
2022-09-23T12:32:10.038Z,100145.91
2022-09-23T12:34:44.105Z,100137.97
2022-09-23T12:37:12.460Z,100134.44
2022-09-23T12:39:40.998Z,100137.97
2022-09-23T12:42:18.150Z,100133.53
2022-09-23T12:44:48.907Z,100133.53
2022-09-23T12:47:47.072Z,100136.19
2022-09-23T12:50:48.444Z,100134.44
2022-09-23T12:53:54.090Z,100137.97
2022-09-23T12:56:27.446Z,100130.91
2022-09-23T12:59:11.622Z,100130.91
2022-09-23T13:01:40.201Z,100129.16
2022-09-23T13:04:50.865Z,100127.41
2022-09-23T13:07:23.828Z,100137.16
2022-09-23T13:09:54.059Z,100126.56
2022-09-23T13:12:29.066Z,100127.47
2022-09-23T13:15:00.690Z,100129.22
2022-09-23T13:17:33.845Z,100125.69
2022-09-23T13:20:06.237Z,100123.97
2022-09-23T13:22:42.982Z,100123.97
2022-09-23T13:25:20.760Z,100118.66
2022-09-23T13:27:54.881Z,100116.91
2022-09-23T13:30:26.757Z,100116.03
2022-09-23T13:33:05.964Z,100115.16
2022-09-23T13:35:37.694Z,100114.28
2022-09-23T13:38:14.071Z,100109.88
2022-09-23T13:40:45.002Z,100115.19
2022-09-23T13:43:21.190Z,100118.72
2022-09-23T13:45:50.974Z,100108.13
2022-09-23T13:48:21.065Z,100117.88
2022-09-23T13:50:51.122Z,100116.13
2022-09-23T13:53:24.507Z,100114.31
2022-09-23T13:56:04.936Z,100104.66
2022-09-23T13:58:35.719Z,100113.47
2022-09-23T14:01:08.424Z,100109.09
2022-09-23T14:03:38.853Z,100101.16
2022-09-23T14:06:11.314Z,100104.66
2022-09-23T14:08:40.953Z,100096.72
2022-09-23T14:11:15.184Z,100094.06
2022-09-23T14:13:46.724Z,100087.03
2022-09-23T14:16:17.148Z,100085.25
2022-09-23T14:18:48.257Z,100087.03
2022-09-23T14:21:35.205Z,100079.94
2022-09-23T14:24:26.271Z,100079.06
2022-09-23T14:26:57.508Z,100079.94
2022-09-23T14:29:30.232Z,100083.47
2022-09-23T14:32:03.621Z,100075.56
2022-09-23T14:34:43.276Z,100074.66
2022-09-23T14:37:44.249Z,100073.78
2022-09-23T14:40:16.234Z,100070.22
2022-09-23T14:42:47.571Z,100066.72
2022-09-23T14:45:21.529Z,100066.72
2022-09-23T14:47:52.515Z,100057.00
2022-09-23T14:50:40.667Z,100064.06
2022-09-23T14:53:35.180Z,100056.13
2022-09-23T14:56:13.917Z,100051.69
2022-09-23T14:58:49.503Z,100057.00
2022-09-23T15:01:40.109Z,100053.47
2022-09-23T15:04:14.415Z,100051.69
2022-09-23T15:06:47.621Z,100048.19
2022-09-23T15:09:23.601Z,100051.69
2022-09-23T15:12:00.133Z,100036.66
2022-09-23T15:14:39.208Z,100041.09
2022-09-23T15:17:32.520Z,100043.75
2022-09-23T15:20:03.887Z,100040.22
2022-09-23T15:22:32.274Z,100034.94
2022-09-23T15:25:17.135Z,100034.94
2022-09-23T15:27:56.595Z,100034.94
2022-09-23T15:30:25.219Z,100029.66
2022-09-23T15:32:54.969Z,100035.81
2022-09-23T15:35:26.534Z,100036.72
2022-09-23T15:38:00.347Z,100035.88
2022-09-23T15:40:30.252Z,100035.00
2022-09-23T15:43:00.602Z,100027.03
2022-09-23T15:45:33.171Z,100034.09
2022-09-23T15:48:08.388Z,100034.97
2022-09-23T15:50:37.779Z,100034.09
2022-09-23T15:53:06.975Z,100039.41
2022-09-23T15:55:35.298Z,100032.38
2022-09-23T15:58:03.635Z,100031.50
2022-09-23T16:00:32.012Z,100030.59
2022-09-23T16:03:01.054Z,100038.56
2022-09-23T16:05:37.656Z,100039.47
2022-09-23T16:08:09.181Z,100035.06
2022-09-23T16:10:38.726Z,100025.34
2022-09-23T16:13:11.570Z,100034.19
2022-09-23T16:15:39.978Z,100034.19
2022-09-23T16:18:09.256Z,100030.69
2022-09-23T16:20:41.889Z,100032.44
2022-09-23T16:23:33.923Z,100031.56
2022-09-23T16:26:05.462Z,100038.63
2022-09-23T16:28:33.793Z,100035.13
2022-09-23T16:31:02.091Z,100041.28
2022-09-23T16:33:30.390Z,100035.13
2022-09-23T16:36:01.780Z,100035.09
2022-09-23T16:38:30.461Z,100030.69
2022-09-23T16:41:00.596Z,100035.13
2022-09-23T16:43:31.615Z,100033.34
2022-09-23T16:46:00.132Z,100039.53
2022-09-23T16:48:28.527Z,100028.97
2022-09-23T16:50:56.846Z,100039.53
2022-09-23T16:53:29.919Z,100034.25
2022-09-23T16:55:58.896Z,100037.78
2022-09-23T16:58:27.222Z,100032.44
2022-09-23T17:01:16.098Z,100035.06
2022-09-23T17:03:44.552Z,100033.31
2022-09-23T17:06:13.947Z,100026.28
2022-09-23T17:08:44.747Z,100035.97
2022-09-23T17:11:14.298Z,100033.31
2022-09-23T17:13:42.599Z,100035.06
2022-09-23T17:16:12.786Z,100038.56
2022-09-23T17:18:41.126Z,100030.63
2022-09-23T17:21:09.634Z,100032.38
2022-09-23T17:23:38.160Z,100028.84
2022-09-23T17:26:09.700Z,100026.22
2022-09-23T17:28:38.005Z,100025.34
2022-09-23T17:31:08.591Z,100020.03
2022-09-23T17:33:38.714Z,100014.75
2022-09-23T17:36:09.172Z,100013.84
2022-09-23T17:38:39.264Z,100019.13
2022-09-23T17:41:09.640Z,100012.06
2022-09-23T17:43:38.444Z,100014.69
2022-09-23T17:46:08.474Z,100012.94
2022-09-23T17:48:38.848Z,100013.75
2022-09-23T17:51:09.310Z,100013.75
2022-09-23T17:53:40.028Z,100010.25
2022-09-23T17:56:16.209Z,100006.69
2022-09-23T17:58:46.019Z,100004.06
2022-09-23T18:01:16.041Z,100011.06
2022-09-23T18:03:45.045Z,100004.84
2022-09-23T18:06:15.252Z,100007.47
2022-09-23T18:08:45.257Z,100013.63
2022-09-23T18:11:18.123Z,100014.47
2022-09-23T18:13:51.891Z,100014.44
2022-09-23T18:16:21.899Z,100010.91
2022-09-23T18:18:53.667Z,100006.47
2022-09-23T18:21:22.790Z,100001.19
2022-09-23T18:23:51.218Z,100002.03
2022-09-23T18:26:22.578Z,100001.13
2022-09-23T18:28:52.730Z,100012.53
2022-09-23T18:31:22.398Z,100010.75
2022-09-23T18:33:51.437Z,100016.91
2022-09-23T18:36:20.272Z,100010.75
2022-09-23T18:38:48.773Z,100010.72
2022-09-23T18:41:18.079Z,100013.34
2022-09-23T18:43:48.881Z,100017.72
2022-09-23T18:46:19.055Z,100019.44
2022-09-23T18:49:05.951Z,100015.91
2022-09-23T18:51:38.018Z,100019.38
2022-09-23T18:54:08.332Z,100016.75
2022-09-23T18:56:40.991Z,100013.22
2022-09-23T18:59:16.458Z,100014.06
2022-09-23T19:01:46.040Z,100023.75
2022-09-23T19:04:18.053Z,100021.06
2022-09-23T19:06:46.842Z,100021.91
2022-09-23T19:09:16.255Z,100022.78
2022-09-23T19:11:44.901Z,100026.28
2022-09-23T19:14:14.610Z,100028.03
2022-09-23T19:16:42.974Z,100028.00
2022-09-23T19:19:11.270Z,100031.50
2022-09-23T19:21:39.861Z,100026.22
2022-09-23T19:24:08.977Z,100030.56
2022-09-23T19:26:39.124Z,100024.41
2022-09-23T19:29:08.954Z,100029.66
2022-09-23T19:31:40.575Z,100027.88
2022-09-23T19:34:13.893Z,100021.69
2022-09-23T19:36:44.833Z,100022.56
2022-09-23T19:39:17.175Z,100023.41
2022-09-23T19:41:46.362Z,100024.25
2022-09-23T19:44:15.284Z,100017.19
2022-09-23T19:46:53.518Z,100021.53
2022-09-23T19:49:25.085Z,100018.91
2022-09-23T19:51:55.510Z,100019.78
2022-09-23T19:54:27.099Z,100010.97
2022-09-23T19:56:56.133Z,100006.56
2022-09-23T19:59:26.327Z,100007.41
2022-09-23T20:01:56.253Z,100003.88
2022-09-23T20:04:24.857Z,100001.25
2022-09-23T20:06:53.146Z,99996.84
2022-09-23T20:09:21.706Z,99990.63
2022-09-23T20:11:50.535Z,100004.69
2022-09-23T20:14:19.787Z,99997.63
2022-09-23T20:16:48.286Z,99995.88
2022-09-23T20:19:17.948Z,99987.94
2022-09-23T20:22:06.348Z,99989.69
2022-09-23T20:24:34.627Z,99983.53
2022-09-23T20:27:11.997Z,99988.81
2022-09-23T20:29:40.278Z,99987.91
2022-09-23T20:32:09.277Z,99988.78
2022-09-23T20:34:40.095Z,99992.28
2022-09-23T20:37:10.720Z,99990.50
2022-09-23T20:39:39.003Z,99986.13
2022-09-23T20:42:09.178Z,99991.38
2022-09-23T20:44:37.494Z,99988.75
2022-09-23T20:47:05.840Z,99986.13
2022-09-23T20:49:34.494Z,99986.97
2022-09-23T20:52:04.354Z,99986.97
2022-09-23T20:54:32.713Z,99979.06
2022-09-23T20:57:01.334Z,99979.94
2022-09-23T20:59:29.596Z,99983.47
2022-09-23T21:01:58.540Z,99984.31
2022-09-23T21:04:27.255Z,99987.81
2022-09-23T21:06:57.388Z,99987.81
2022-09-23T21:09:28.487Z,99979.94
2022-09-23T21:11:56.785Z,99979.94
2022-09-23T21:14:25.542Z,99974.66
2022-09-23T21:16:54.622Z,99973.75
2022-09-23T21:19:24.345Z,99972.88
2022-09-23T21:21:52.624Z,99971.13
2022-09-23T21:27:10.744Z,99965.84
2022-09-23T21:29:39.174Z,99964.06
2022-09-23T21:32:07.441Z,99965.84
2022-09-23T21:34:35.750Z,99976.38
2022-09-23T21:37:04.275Z,99970.19
2022-09-23T21:39:32.534Z,99966.69
2022-09-23T21:42:01.466Z,99970.19
2022-09-23T21:44:31.141Z,99974.59
2022-09-23T21:46:59.456Z,99971.06
2022-09-23T21:49:27.975Z,99966.69
2022-09-23T21:51:58.892Z,99965.78
2022-09-23T21:54:27.309Z,99959.66
2022-09-23T21:56:55.904Z,99967.53
2022-09-23T21:59:24.180Z,99965.75
2022-09-23T22:01:54.489Z,99968.38
2022-09-23T22:04:23.080Z,99975.41
2022-09-23T22:06:51.556Z,99979.75
2022-09-23T22:09:21.875Z,99963.09
2022-09-23T22:12:11.104Z,99976.25
2022-09-23T22:14:39.839Z,99966.59
2022-09-23T22:17:11.678Z,99967.47
2022-09-23T22:19:45.825Z,99953.41
2022-09-23T22:22:17.604Z,99969.19
2022-09-23T22:24:55.120Z,99964.81
2022-09-23T22:27:24.536Z,99965.66
2022-09-23T22:30:10.104Z,99970.03
2022-09-23T22:32:43.452Z,99968.28
2022-09-23T22:35:14.048Z,99961.22
2022-09-23T22:37:42.367Z,99955.97
2022-09-23T22:40:14.330Z,99954.22
2022-09-23T22:42:43.771Z,99961.25
2022-09-23T22:45:13.142Z,99962.09
2022-09-23T22:47:45.213Z,99956.81
2022-09-23T22:50:16.087Z,99967.34
2022-09-23T22:52:44.359Z,99961.22
2022-09-23T22:55:13.252Z,99962.97
2022-09-23T22:57:41.532Z,99977.88
2022-09-23T23:00:11.219Z,99969.97
2022-09-23T23:02:39.860Z,99970.84
2022-09-23T23:05:10.099Z,99965.59
2022-09-23T23:07:38.423Z,99965.59
2022-09-23T23:10:09.990Z,99964.72
2022-09-23T23:12:40.060Z,99969.09
2022-09-23T23:15:12.578Z,99963.84
2022-09-23T23:17:43.330Z,99964.72
2022-09-23T23:20:12.991Z,99969.09
2022-09-23T23:22:41.348Z,99970.84
2022-09-23T23:25:10.389Z,99964.72
2022-09-23T23:27:38.677Z,99959.47
2022-09-23T23:30:08.755Z,99956.81
2022-09-23T23:32:37.030Z,99957.66
2022-09-23T23:35:06.055Z,99947.16
2022-09-23T23:37:35.800Z,99941.00
2022-09-23T23:40:04.554Z,99947.16
2022-09-23T23:42:33.073Z,99945.38
2022-09-23T23:45:01.384Z,99940.97
2022-09-23T23:47:29.684Z,99946.25
2022-09-23T23:49:57.958Z,99949.75
2022-09-23T23:52:26.306Z,99937.44
2022-09-23T23:54:56.184Z,99944.44
2022-09-23T23:57:24.536Z,99932.16
2022-09-23T23:59:52.796Z,99940.94
